sensor_id;sensor_type;location;lat;lon;timestamp;temperature;humidity
19180;DHT22;9722;48.754;8.868;2023-04-03T00:00:31;4.50;84.50
19180;DHT22;9722;48.754;8.868;2023-04-03T00:03:52;4.50;84.70
19180;DHT22;9722;48.754;8.868;2023-04-03T00:07:12;4.50;84.60
19180;DHT22;9722;48.754;8.868;2023-04-03T00:10:34;4.40;84.40
19180;DHT22;9722;48.754;8.868;2023-04-03T00:13:54;4.40;84.80
19180;DHT22;9722;48.754;8.868;2023-04-03T00:17:15;4.50;85.00
19180;DHT22;9722;48.754;8.868;2023-04-03T00:20:36;4.50;85.00
19180;DHT22;9722;48.754;8.868;2023-04-03T00:23:57;4.50;85.00
19180;DHT22;9722;48.754;8.868;2023-04-03T00:27:17;4.40;85.80
19180;DHT22;9722;48.754;8.868;2023-04-03T00:30:38;4.40;85.00
19180;DHT22;9722;48.754;8.868;2023-04-03T00:33:58;4.40;85.00
19180;DHT22;9722;48.754;8.868;2023-04-03T00:37:19;4.30;85.10
19180;DHT22;9722;48.754;8.868;2023-04-03T00:40:43;4.30;85.20
19180;DHT22;9722;48.754;8.868;2023-04-03T00:44:21;4.20;85.30
19180;DHT22;9722;48.754;8.868;2023-04-03T00:47:42;4.20;85.50
19180;DHT22;9722;48.754;8.868;2023-04-03T00:51:04;4.20;85.50
19180;DHT22;9722;48.754;8.868;2023-04-03T00:54:26;4.20;85.70
19180;DHT22;9722;48.754;8.868;2023-04-03T00:57:47;4.10;85.90
19180;DHT22;9722;48.754;8.868;2023-04-03T01:01:12;4.10;86.20
19180;DHT22;9722;48.754;8.868;2023-04-03T01:04:38;4.10;86.40
19180;DHT22;9722;48.754;8.868;2023-04-03T01:07:59;4.00;86.50
19180;DHT22;9722;48.754;8.868;2023-04-03T01:11:20;4.00;86.60
19180;DHT22;9722;48.754;8.868;2023-04-03T01:14:41;4.00;86.60
19180;DHT22;9722;48.754;8.868;2023-04-03T01:18:02;4.00;86.60
19180;DHT22;9722;48.754;8.868;2023-04-03T01:21:56;4.00;86.60
19180;DHT22;9722;48.754;8.868;2023-04-03T01:25:21;3.90;86.70
19180;DHT22;9722;48.754;8.868;2023-04-03T01:28:42;3.90;86.90
19180;DHT22;9722;48.754;8.868;2023-04-03T01:32:03;3.90;87.10
19180;DHT22;9722;48.754;8.868;2023-04-03T01:35:24;3.90;87.20
19180;DHT22;9722;48.754;8.868;2023-04-03T01:38:45;4.00;87.50
19180;DHT22;9722;48.754;8.868;2023-04-03T01:42:05;3.80;87.40
19180;DHT22;9722;48.754;8.868;2023-04-03T01:45:26;3.80;87.50
19180;DHT22;9722;48.754;8.868;2023-04-03T01:48:47;3.80;87.70
19180;DHT22;9722;48.754;8.868;2023-04-03T01:52:07;3.70;87.80
19180;DHT22;9722;48.754;8.868;2023-04-03T01:55:28;3.70;87.90
19180;DHT22;9722;48.754;8.868;2023-04-03T01:58:48;3.70;88.00
19180;DHT22;9722;48.754;8.868;2023-04-03T02:02:09;3.70;88.20
19180;DHT22;9722;48.754;8.868;2023-04-03T02:05:32;3.60;88.30
19180;DHT22;9722;48.754;8.868;2023-04-03T02:08:53;3.60;88.40
19180;DHT22;9722;48.754;8.868;2023-04-03T02:12:13;3.60;88.60
19180;DHT22;9722;48.754;8.868;2023-04-03T02:15:34;3.60;88.80
19180;DHT22;9722;48.754;8.868;2023-04-03T02:18:58;3.50;88.90
19180;DHT22;9722;48.754;8.868;2023-04-03T02:22:18;3.50;88.90
19180;DHT22;9722;48.754;8.868;2023-04-03T02:25:40;3.50;89.20
19180;DHT22;9722;48.754;8.868;2023-04-03T02:29:00;3.50;89.30
19180;DHT22;9722;48.754;8.868;2023-04-03T02:32:21;3.40;89.50
19180;DHT22;9722;48.754;8.868;2023-04-03T02:35:41;3.40;89.70
19180;DHT22;9722;48.754;8.868;2023-04-03T02:39:02;3.40;89.80
19180;DHT22;9722;48.754;8.868;2023-04-03T02:42:23;3.40;90.00
19180;DHT22;9722;48.754;8.868;2023-04-03T02:45:44;3.40;90.00
19180;DHT22;9722;48.754;8.868;2023-04-03T02:49:04;3.50;90.10
19180;DHT22;9722;48.754;8.868;2023-04-03T02:52:25;3.50;90.20
19180;DHT22;9722;48.754;8.868;2023-04-03T02:55:46;3.50;90.10
19180;DHT22;9722;48.754;8.868;2023-04-03T02:59:06;3.50;90.10
19180;DHT22;9722;48.754;8.868;2023-04-03T03:02:27;3.50;90.20
19180;DHT22;9722;48.754;8.868;2023-04-03T03:05:47;3.50;90.10
19180;DHT22;9722;48.754;8.868;2023-04-03T03:09:08;3.50;90.10
19180;DHT22;9722;48.754;8.868;2023-04-03T03:12:28;3.50;90.10
19180;DHT22;9722;48.754;8.868;2023-04-03T03:15:49;3.60;90.10
19180;DHT22;9722;48.754;8.868;2023-04-03T03:19:10;3.60;90.10
19180;DHT22;9722;48.754;8.868;2023-04-03T03:22:31;3.60;90.10
19180;DHT22;9722;48.754;8.868;2023-04-03T03:26:08;3.70;90.10
19180;DHT22;9722;48.754;8.868;2023-04-03T03:29:29;3.70;90.00
19180;DHT22;9722;48.754;8.868;2023-04-03T03:32:49;3.70;89.80
19180;DHT22;9722;48.754;8.868;2023-04-03T03:36:10;3.70;89.60
19180;DHT22;9722;48.754;8.868;2023-04-03T03:39:31;3.70;89.60
19180;DHT22;9722;48.754;8.868;2023-04-03T03:42:51;3.70;89.40
19180;DHT22;9722;48.754;8.868;2023-04-03T03:46:11;3.80;89.20
19180;DHT22;9722;48.754;8.868;2023-04-03T03:49:32;3.80;89.20
19180;DHT22;9722;48.754;8.868;2023-04-03T03:52:52;3.80;89.20
19180;DHT22;9722;48.754;8.868;2023-04-03T03:56:13;3.70;89.20
19180;DHT22;9722;48.754;8.868;2023-04-03T03:59:34;3.80;89.20
19180;DHT22;9722;48.754;8.868;2023-04-03T04:02:54;3.80;89.30
19180;DHT22;9722;48.754;8.868;2023-04-03T04:06:16;3.80;89.30
19180;DHT22;9722;48.754;8.868;2023-04-03T04:09:36;3.80;89.40
19180;DHT22;9722;48.754;8.868;2023-04-03T04:12:57;3.80;89.30
19180;DHT22;9722;48.754;8.868;2023-04-03T04:16:17;3.80;89.30
19180;DHT22;9722;48.754;8.868;2023-04-03T04:19:38;3.90;89.30
19180;DHT22;9722;48.754;8.868;2023-04-03T04:22:58;3.90;89.30
19180;DHT22;9722;48.754;8.868;2023-04-03T04:26:19;3.90;89.10
19180;DHT22;9722;48.754;8.868;2023-04-03T04:29:40;3.90;89.00
19180;DHT22;9722;48.754;8.868;2023-04-03T04:33:00;3.90;88.80
19180;DHT22;9722;48.754;8.868;2023-04-03T04:36:21;3.90;88.50
19180;DHT22;9722;48.754;8.868;2023-04-03T04:39:42;3.90;88.30
19180;DHT22;9722;48.754;8.868;2023-04-03T04:43:02;3.90;87.70
19180;DHT22;9722;48.754;8.868;2023-04-03T04:46:23;3.90;87.30
19180;DHT22;9722;48.754;8.868;2023-04-03T04:49:44;3.90;87.10
19180;DHT22;9722;48.754;8.868;2023-04-03T04:53:05;4.00;86.60
19180;DHT22;9722;48.754;8.868;2023-04-03T04:56:25;3.90;86.50
19180;DHT22;9722;48.754;8.868;2023-04-03T04:59:46;4.00;86.10
19180;DHT22;9722;48.754;8.868;2023-04-03T05:03:07;4.00;85.80
19180;DHT22;9722;48.754;8.868;2023-04-03T05:06:27;3.90;85.20
19180;DHT22;9722;48.754;8.868;2023-04-03T05:09:48;3.90;84.90
19180;DHT22;9722;48.754;8.868;2023-04-03T05:13:08;3.90;84.90
19180;DHT22;9722;48.754;8.868;2023-04-03T05:16:29;3.90;84.50
19180;DHT22;9722;48.754;8.868;2023-04-03T05:19:49;3.90;84.10
19180;DHT22;9722;48.754;8.868;2023-04-03T05:23:11;4.00;83.80
19180;DHT22;9722;48.754;8.868;2023-04-03T05:26:31;4.00;83.40
19180;DHT22;9722;48.754;8.868;2023-04-03T05:29:53;4.00;83.20
19180;DHT22;9722;48.754;8.868;2023-04-03T05:33:13;4.00;82.90
19180;DHT22;9722;48.754;8.868;2023-04-03T05:36:34;4.00;82.40
19180;DHT22;9722;48.754;8.868;2023-04-03T05:39:55;4.00;82.20
19180;DHT22;9722;48.754;8.868;2023-04-03T05:43:16;4.00;81.70
19180;DHT22;9722;48.754;8.868;2023-04-03T05:46:36;4.10;81.40
19180;DHT22;9722;48.754;8.868;2023-04-03T05:49:57;4.20;81.10
19180;DHT22;9722;48.754;8.868;2023-04-03T05:53:28;4.30;81.10
19180;DHT22;9722;48.754;8.868;2023-04-03T05:56:50;4.40;80.40
19180;DHT22;9722;48.754;8.868;2023-04-03T06:00:13;4.40;79.40
19180;DHT22;9722;48.754;8.868;2023-04-03T06:03:35;4.50;78.60
19180;DHT22;9722;48.754;8.868;2023-04-03T06:06:57;4.50;77.90
19180;DHT22;9722;48.754;8.868;2023-04-03T06:10:18;4.60;77.70
19180;DHT22;9722;48.754;8.868;2023-04-03T06:13:40;4.70;77.30
19180;DHT22;9722;48.754;8.868;2023-04-03T06:17:01;5.10;76.90
19180;DHT22;9722;48.754;8.868;2023-04-03T06:20:22;6.00;75.30
19180;DHT22;9722;48.754;8.868;2023-04-03T06:23:42;6.70;73.00
19180;DHT22;9722;48.754;8.868;2023-04-03T06:27:03;6.80;71.40
19180;DHT22;9722;48.754;8.868;2023-04-03T06:30:24;6.70;70.80
19180;DHT22;9722;48.754;8.868;2023-04-03T06:33:44;6.70;70.30
19180;DHT22;9722;48.754;8.868;2023-04-03T06:37:05;6.80;70.10
19180;DHT22;9722;48.754;8.868;2023-04-03T06:40:25;7.10;69.10
19180;DHT22;9722;48.754;8.868;2023-04-03T06:43:46;7.20;67.90
19180;DHT22;9722;48.754;8.868;2023-04-03T06:47:11;7.20;67.60
19180;DHT22;9722;48.754;8.868;2023-04-03T06:50:33;7.10;67.20
19180;DHT22;9722;48.754;8.868;2023-04-03T06:53:55;7.00;66.90
19180;DHT22;9722;48.754;8.868;2023-04-03T06:57:16;6.80;66.90
19180;DHT22;9722;48.754;8.868;2023-04-03T07:00:37;6.70;66.90
19180;DHT22;9722;48.754;8.868;2023-04-03T07:03:58;6.60;67.20
19180;DHT22;9722;48.754;8.868;2023-04-03T07:07:18;6.60;67.50
19180;DHT22;9722;48.754;8.868;2023-04-03T07:10:39;6.60;67.70
19180;DHT22;9722;48.754;8.868;2023-04-03T07:14:00;6.60;67.70
19180;DHT22;9722;48.754;8.868;2023-04-03T07:17:20;6.70;67.60
19180;DHT22;9722;48.754;8.868;2023-04-03T07:20:41;6.70;67.60
19180;DHT22;9722;48.754;8.868;2023-04-03T07:24:01;6.70;67.60
19180;DHT22;9722;48.754;8.868;2023-04-03T07:27:22;6.70;67.40
19180;DHT22;9722;48.754;8.868;2023-04-03T07:30:47;6.70;67.40
19180;DHT22;9722;48.754;8.868;2023-04-03T07:34:08;6.70;67.60
19180;DHT22;9722;48.754;8.868;2023-04-03T07:37:29;6.80;67.80
19180;DHT22;9722;48.754;8.868;2023-04-03T07:40:50;7.00;67.60
19180;DHT22;9722;48.754;8.868;2023-04-03T07:44:11;7.20;67.10
19180;DHT22;9722;48.754;8.868;2023-04-03T07:47:32;7.30;66.70
19180;DHT22;9722;48.754;8.868;2023-04-03T07:50:53;7.60;65.80
19180;DHT22;9722;48.754;8.868;2023-04-03T07:54:13;7.80;64.70
19180;DHT22;9722;48.754;8.868;2023-04-03T07:57:34;7.90;64.70
19180;DHT22;9722;48.754;8.868;2023-04-03T08:00:55;8.00;64.80
19180;DHT22;9722;48.754;8.868;2023-04-03T08:04:16;8.00;64.00
19180;DHT22;9722;48.754;8.868;2023-04-03T08:07:37;8.10;64.00
19180;DHT22;9722;48.754;8.868;2023-04-03T08:11:00;8.10;64.00
19180;DHT22;9722;48.754;8.868;2023-04-03T08:14:21;8.20;63.60
19180;DHT22;9722;48.754;8.868;2023-04-03T08:17:41;8.30;63.30
19180;DHT22;9722;48.754;8.868;2023-04-03T08:21:05;8.30;63.10
19180;DHT22;9722;48.754;8.868;2023-04-03T08:24:26;8.40;63.00
19180;DHT22;9722;48.754;8.868;2023-04-03T08:27:47;8.60;63.10
19180;DHT22;9722;48.754;8.868;2023-04-03T08:31:10;8.90;62.20
19180;DHT22;9722;48.754;8.868;2023-04-03T08:34:32;9.30;61.50
19180;DHT22;9722;48.754;8.868;2023-04-03T08:37:55;9.40;60.50
19180;DHT22;9722;48.754;8.868;2023-04-03T08:44:38;9.20;60.40
19180;DHT22;9722;48.754;8.868;2023-04-03T08:48:13;9.20;60.60
19180;DHT22;9722;48.754;8.868;2023-04-03T08:51:46;9.40;60.70
19180;DHT22;9722;48.754;8.868;2023-04-03T08:55:29;9.50;60.00
19180;DHT22;9722;48.754;8.868;2023-04-03T08:59:06;9.40;60.20
19180;DHT22;9722;48.754;8.868;2023-04-03T09:02:48;9.30;59.60
19180;DHT22;9722;48.754;8.868;2023-04-03T09:06:20;9.30;59.80
19180;DHT22;9722;48.754;8.868;2023-04-03T09:09:42;9.50;59.60
19180;DHT22;9722;48.754;8.868;2023-04-03T09:16:55;10.30;57.70
19180;DHT22;9722;48.754;8.868;2023-04-03T09:20:39;10.40;56.90
19180;DHT22;9722;48.754;8.868;2023-04-03T09:24:04;10.60;56.90
19180;DHT22;9722;48.754;8.868;2023-04-03T09:27:26;10.90;56.10
19180;DHT22;9722;48.754;8.868;2023-04-03T09:30:46;10.90;55.40
19180;DHT22;9722;48.754;8.868;2023-04-03T09:34:26;10.80;55.10
19180;DHT22;9722;48.754;8.868;2023-04-03T09:37:50;10.70;54.60
19180;DHT22;9722;48.754;8.868;2023-04-03T09:41:16;10.90;55.30
19180;DHT22;9722;48.754;8.868;2023-04-03T09:44:38;11.30;54.40
19180;DHT22;9722;48.754;8.868;2023-04-03T09:51:28;11.20;53.50
19180;DHT22;9722;48.754;8.868;2023-04-03T09:54:49;11.00;53.30
19180;DHT22;9722;48.754;8.868;2023-04-03T09:58:25;11.00;53.30
19180;DHT22;9722;48.754;8.868;2023-04-03T10:02:14;11.50;53.10
19180;DHT22;9722;48.754;8.868;2023-04-03T10:05:41;11.80;52.50
19180;DHT22;9722;48.754;8.868;2023-04-03T10:09:24;11.90;52.40
19180;DHT22;9722;48.754;8.868;2023-04-03T10:12:44;12.00;52.10
19180;DHT22;9722;48.754;8.868;2023-04-03T10:16:09;11.60;51.80
19180;DHT22;9722;48.754;8.868;2023-04-03T10:19:47;11.20;51.90
19180;DHT22;9722;48.754;8.868;2023-04-03T10:23:28;10.80;52.00
19180;DHT22;9722;48.754;8.868;2023-04-03T10:33:56;10.90;52.10
19180;DHT22;9722;48.754;8.868;2023-04-03T10:37:27;10.90;52.20
19180;DHT22;9722;48.754;8.868;2023-04-03T10:41:12;10.70;51.50
19180;DHT22;9722;48.754;8.868;2023-04-03T10:45:01;10.40;51.20
19180;DHT22;9722;48.754;8.868;2023-04-03T10:52:02;9.70;52.20
19180;DHT22;9722;48.754;8.868;2023-04-03T10:59:21;9.20;52.60
19180;DHT22;9722;48.754;8.868;2023-04-03T11:03:03;9.00;52.60
19180;DHT22;9722;48.754;8.868;2023-04-03T11:06:35;8.90;53.10
19180;DHT22;9722;48.754;8.868;2023-04-03T11:10:13;8.90;53.30
19180;DHT22;9722;48.754;8.868;2023-04-03T11:13:40;8.90;53.20
19180;DHT22;9722;48.754;8.868;2023-04-03T11:17:15;8.90;53.30
19180;DHT22;9722;48.754;8.868;2023-04-03T11:20:43;9.00;53.10
19180;DHT22;9722;48.754;8.868;2023-04-03T11:24:15;8.90;52.70
19180;DHT22;9722;48.754;8.868;2023-04-03T11:31:12;8.60;52.90
19180;DHT22;9722;48.754;8.868;2023-04-03T11:34:53;8.50;52.80
19180;DHT22;9722;48.754;8.868;2023-04-03T11:38:41;8.40;52.70
19180;DHT22;9722;48.754;8.868;2023-04-03T11:42:17;8.30;53.00
19180;DHT22;9722;48.754;8.868;2023-04-03T11:45:54;8.30;53.10
19180;DHT22;9722;48.754;8.868;2023-04-03T11:56:35;8.20;53.20
19180;DHT22;9722;48.754;8.868;2023-04-03T11:59:55;8.20;53.30
19180;DHT22;9722;48.754;8.868;2023-04-03T12:10:15;8.50;52.80
19180;DHT22;9722;48.754;8.868;2023-04-03T12:17:23;8.40;52.20
19180;DHT22;9722;48.754;8.868;2023-04-03T12:20:56;8.30;52.40
19180;DHT22;9722;48.754;8.868;2023-04-03T12:27:42;8.20;52.60
19180;DHT22;9722;48.754;8.868;2023-04-03T12:31:04;8.10;52.80
19180;DHT22;9722;48.754;8.868;2023-04-03T12:38:51;8.20;52.80
19180;DHT22;9722;48.754;8.868;2023-04-03T12:42:42;8.40;52.60
19180;DHT22;9722;48.754;8.868;2023-04-03T12:49:42;8.60;52.30
19180;DHT22;9722;48.754;8.868;2023-04-03T12:53:11;8.80;52.00
19180;DHT22;9722;48.754;8.868;2023-04-03T12:56:33;8.90;51.80
19180;DHT22;9722;48.754;8.868;2023-04-03T12:59:54;9.00;51.70
19180;DHT22;9722;48.754;8.868;2023-04-03T13:03:22;9.10;51.20
19180;DHT22;9722;48.754;8.868;2023-04-03T13:06:44;9.10;50.70
19180;DHT22;9722;48.754;8.868;2023-04-03T13:13:29;9.20;50.10
19180;DHT22;9722;48.754;8.868;2023-04-03T13:16:54;9.30;49.70
19180;DHT22;9722;48.754;8.868;2023-04-03T13:20:29;9.40;49.20
19180;DHT22;9722;48.754;8.868;2023-04-03T13:23:52;9.50;49.10
19180;DHT22;9722;48.754;8.868;2023-04-03T13:27:13;9.70;49.20
19180;DHT22;9722;48.754;8.868;2023-04-03T13:30:36;9.70;48.80
19180;DHT22;9722;48.754;8.868;2023-04-03T13:34:11;9.60;49.00
19180;DHT22;9722;48.754;8.868;2023-04-03T13:37:33;9.60;48.70
19180;DHT22;9722;48.754;8.868;2023-04-03T13:40:57;9.50;48.30
19180;DHT22;9722;48.754;8.868;2023-04-03T13:47:43;9.30;49.00
19180;DHT22;9722;48.754;8.868;2023-04-03T13:54:32;9.50;49.40
19180;DHT22;9722;48.754;8.868;2023-04-03T14:01:19;9.80;49.00
19180;DHT22;9722;48.754;8.868;2023-04-03T14:08:04;10.20;47.40
19180;DHT22;9722;48.754;8.868;2023-04-03T14:11:29;10.40;47.30
19180;DHT22;9722;48.754;8.868;2023-04-03T14:14:49;10.50;47.00
19180;DHT22;9722;48.754;8.868;2023-04-03T14:18:12;10.50;47.00
19180;DHT22;9722;48.754;8.868;2023-04-03T14:21:32;10.60;46.80
19180;DHT22;9722;48.754;8.868;2023-04-03T14:24:54;10.60;46.50
19180;DHT22;9722;48.754;8.868;2023-04-03T14:28:21;10.60;46.10
19180;DHT22;9722;48.754;8.868;2023-04-03T14:31:43;10.50;45.80
19180;DHT22;9722;48.754;8.868;2023-04-03T14:35:04;10.30;45.60
19180;DHT22;9722;48.754;8.868;2023-04-03T14:38:29;10.20;45.50
19180;DHT22;9722;48.754;8.868;2023-04-03T14:41:49;10.10;45.50
19180;DHT22;9722;48.754;8.868;2023-04-03T14:45:12;10.10;45.50
19180;DHT22;9722;48.754;8.868;2023-04-03T14:48:32;10.00;45.30
19180;DHT22;9722;48.754;8.868;2023-04-03T14:51:53;10.10;45.10
19180;DHT22;9722;48.754;8.868;2023-04-03T14:55:16;9.90;46.10
19180;DHT22;9722;48.754;8.868;2023-04-03T14:58:36;9.80;46.30
19180;DHT22;9722;48.754;8.868;2023-04-03T15:01:57;9.70;46.80
19180;DHT22;9722;48.754;8.868;2023-04-03T15:05:17;9.60;47.10
19180;DHT22;9722;48.754;8.868;2023-04-03T15:08:40;9.60;47.30
19180;DHT22;9722;48.754;8.868;2023-04-03T15:12:02;9.60;47.20
19180;DHT22;9722;48.754;8.868;2023-04-03T15:15:24;9.50;47.10
19180;DHT22;9722;48.754;8.868;2023-04-03T15:18:45;9.40;47.10
19180;DHT22;9722;48.754;8.868;2023-04-03T15:22:06;9.20;47.00
19180;DHT22;9722;48.754;8.868;2023-04-03T15:25:27;8.90;46.80
19180;DHT22;9722;48.754;8.868;2023-04-03T15:28:47;8.60;46.90
19180;DHT22;9722;48.754;8.868;2023-04-03T15:32:08;8.40;47.50
19180;DHT22;9722;48.754;8.868;2023-04-03T15:35:29;8.30;47.40
19180;DHT22;9722;48.754;8.868;2023-04-03T15:38:50;8.30;47.40
19180;DHT22;9722;48.754;8.868;2023-04-03T15:42:10;8.40;47.50
19180;DHT22;9722;48.754;8.868;2023-04-03T15:45:34;8.40;47.50
19180;DHT22;9722;48.754;8.868;2023-04-03T15:48:55;8.30;47.40
19180;DHT22;9722;48.754;8.868;2023-04-03T15:52:16;8.30;48.00
19180;DHT22;9722;48.754;8.868;2023-04-03T15:55:37;8.30;47.40
19180;DHT22;9722;48.754;8.868;2023-04-03T15:58:58;8.30;47.30
19180;DHT22;9722;48.754;8.868;2023-04-03T16:02:19;8.20;47.30
19180;DHT22;9722;48.754;8.868;2023-04-03T16:05:41;8.10;47.30
19180;DHT22;9722;48.754;8.868;2023-04-03T16:09:01;8.10;47.60
19180;DHT22;9722;48.754;8.868;2023-04-03T16:12:22;8.10;47.80
19180;DHT22;9722;48.754;8.868;2023-04-03T16:15:42;8.10;47.60
19180;DHT22;9722;48.754;8.868;2023-04-03T16:19:04;8.10;47.50
19180;DHT22;9722;48.754;8.868;2023-04-03T16:22:26;8.00;47.70
19180;DHT22;9722;48.754;8.868;2023-04-03T16:25:48;7.80;47.90
19180;DHT22;9722;48.754;8.868;2023-04-03T16:29:09;7.60;48.10
19180;DHT22;9722;48.754;8.868;2023-04-03T16:32:31;7.20;48.20
19180;DHT22;9722;48.754;8.868;2023-04-03T16:35:52;7.00;48.60
19180;DHT22;9722;48.754;8.868;2023-04-03T16:39:12;6.70;49.10
19180;DHT22;9722;48.754;8.868;2023-04-03T16:42:33;6.50;49.60
19180;DHT22;9722;48.754;8.868;2023-04-03T16:45:53;6.40;50.00
19180;DHT22;9722;48.754;8.868;2023-04-03T16:49:14;6.30;50.10
19180;DHT22;9722;48.754;8.868;2023-04-03T16:52:35;6.30;50.50
19180;DHT22;9722;48.754;8.868;2023-04-03T16:55:57;6.30;50.60
19180;DHT22;9722;48.754;8.868;2023-04-03T16:59:18;6.40;50.70
19180;DHT22;9722;48.754;8.868;2023-04-03T17:02:39;6.50;50.70
19180;DHT22;9722;48.754;8.868;2023-04-03T17:06:00;6.60;50.80
19180;DHT22;9722;48.754;8.868;2023-04-03T17:09:21;6.70;50.90
19180;DHT22;9722;48.754;8.868;2023-04-03T17:12:43;6.80;50.50
19180;DHT22;9722;48.754;8.868;2023-04-03T17:16:05;6.70;49.90
19180;DHT22;9722;48.754;8.868;2023-04-03T17:19:28;6.60;49.70
19180;DHT22;9722;48.754;8.868;2023-04-03T17:22:48;6.40;49.70
19180;DHT22;9722;48.754;8.868;2023-04-03T17:26:09;6.20;49.90
19180;DHT22;9722;48.754;8.868;2023-04-03T17:29:29;6.00;50.30
19180;DHT22;9722;48.754;8.868;2023-04-03T17:32:50;5.80;50.40
19180;DHT22;9722;48.754;8.868;2023-04-03T17:36:10;5.70;50.90
19180;DHT22;9722;48.754;8.868;2023-04-03T17:39:31;5.60;51.10
19180;DHT22;9722;48.754;8.868;2023-04-03T17:42:51;5.40;51.30
19180;DHT22;9722;48.754;8.868;2023-04-03T17:46:12;5.30;51.50
19180;DHT22;9722;48.754;8.868;2023-04-03T17:49:33;5.20;51.70
19180;DHT22;9722;48.754;8.868;2023-04-03T17:52:53;5.20;52.10
19180;DHT22;9722;48.754;8.868;2023-04-03T17:56:22;5.20;52.20
19180;DHT22;9722;48.754;8.868;2023-04-03T17:59:43;5.20;52.40
19180;DHT22;9722;48.754;8.868;2023-04-03T18:03:04;5.20;52.60
19180;DHT22;9722;48.754;8.868;2023-04-03T18:06:27;5.20;52.80
19180;DHT22;9722;48.754;8.868;2023-04-03T18:09:51;5.20;53.00
19180;DHT22;9722;48.754;8.868;2023-04-03T18:13:12;5.20;53.40
19180;DHT22;9722;48.754;8.868;2023-04-03T18:16:33;5.20;53.70
19180;DHT22;9722;48.754;8.868;2023-04-03T18:19:53;5.20;53.80
19180;DHT22;9722;48.754;8.868;2023-04-03T18:23:14;5.20;54.00
19180;DHT22;9722;48.754;8.868;2023-04-03T18:26:35;5.20;54.20
19180;DHT22;9722;48.754;8.868;2023-04-03T18:29:59;5.20;54.40
19180;DHT22;9722;48.754;8.868;2023-04-03T18:33:20;5.20;54.40
19180;DHT22;9722;48.754;8.868;2023-04-03T18:36:41;5.20;54.40
19180;DHT22;9722;48.754;8.868;2023-04-03T18:40:01;5.20;54.40
19180;DHT22;9722;48.754;8.868;2023-04-03T18:43:24;5.20;54.40
19180;DHT22;9722;48.754;8.868;2023-04-03T18:46:45;5.20;54.50
19180;DHT22;9722;48.754;8.868;2023-04-03T18:50:07;5.20;54.70
19180;DHT22;9722;48.754;8.868;2023-04-03T18:53:27;5.20;54.80
19180;DHT22;9722;48.754;8.868;2023-04-03T18:56:48;5.10;54.90
19180;DHT22;9722;48.754;8.868;2023-04-03T19:00:09;5.10;55.10
19180;DHT22;9722;48.754;8.868;2023-04-03T19:03:29;4.90;55.20
19180;DHT22;9722;48.754;8.868;2023-04-03T19:06:51;4.80;55.20
19180;DHT22;9722;48.754;8.868;2023-04-03T19:10:13;4.70;55.30
19180;DHT22;9722;48.754;8.868;2023-04-03T19:13:36;4.60;55.40
19180;DHT22;9722;48.754;8.868;2023-04-03T19:16:57;4.50;55.50
19180;DHT22;9722;48.754;8.868;2023-04-03T19:20:17;4.50;55.70
19180;DHT22;9722;48.754;8.868;2023-04-03T19:23:38;4.40;55.70
19180;DHT22;9722;48.754;8.868;2023-04-03T19:27:02;4.40;55.80
19180;DHT22;9722;48.754;8.868;2023-04-03T19:30:23;4.40;56.00
19180;DHT22;9722;48.754;8.868;2023-04-03T19:33:44;4.40;56.00
19180;DHT22;9722;48.754;8.868;2023-04-03T19:37:04;4.40;56.00
19180;DHT22;9722;48.754;8.868;2023-04-03T19:40:25;4.30;56.00
19180;DHT22;9722;48.754;8.868;2023-04-03T19:43:50;4.20;55.90
19180;DHT22;9722;48.754;8.868;2023-04-03T19:47:11;4.10;55.80
19180;DHT22;9722;48.754;8.868;2023-04-03T19:50:32;4.00;55.80
19180;DHT22;9722;48.754;8.868;2023-04-03T19:53:53;4.00;55.90
19180;DHT22;9722;48.754;8.868;2023-04-03T19:57:13;3.90;56.10
19180;DHT22;9722;48.754;8.868;2023-04-03T20:00:34;3.80;56.10
19180;DHT22;9722;48.754;8.868;2023-04-03T20:03:55;3.60;56.20
19180;DHT22;9722;48.754;8.868;2023-04-03T20:07:16;3.50;56.30
19180;DHT22;9722;48.754;8.868;2023-04-03T20:10:37;3.40;56.50
19180;DHT22;9722;48.754;8.868;2023-04-03T20:13:59;3.20;56.70
19180;DHT22;9722;48.754;8.868;2023-04-03T20:17:20;3.10;56.80
19180;DHT22;9722;48.754;8.868;2023-04-03T20:20:41;3.10;57.10
19180;DHT22;9722;48.754;8.868;2023-04-03T20:24:03;3.00;57.20
19180;DHT22;9722;48.754;8.868;2023-04-03T20:27:25;3.00;57.30
19180;DHT22;9722;48.754;8.868;2023-04-03T20:30:46;3.00;57.30
19180;DHT22;9722;48.754;8.868;2023-04-03T20:34:09;3.00;57.30
19180;DHT22;9722;48.754;8.868;2023-04-03T20:37:29;3.00;57.30
19180;DHT22;9722;48.754;8.868;2023-04-03T20:40:50;2.90;57.20
19180;DHT22;9722;48.754;8.868;2023-04-03T20:44:11;2.90;57.30
19180;DHT22;9722;48.754;8.868;2023-04-03T20:47:32;2.80;57.30
19180;DHT22;9722;48.754;8.868;2023-04-03T20:50:53;2.80;57.50
19180;DHT22;9722;48.754;8.868;2023-04-03T20:54:13;2.70;57.50
19180;DHT22;9722;48.754;8.868;2023-04-03T20:57:34;2.70;58.20
19180;DHT22;9722;48.754;8.868;2023-04-03T21:00:55;2.60;57.70
19180;DHT22;9722;48.754;8.868;2023-04-03T21:04:26;2.50;57.70
19180;DHT22;9722;48.754;8.868;2023-04-03T21:19:12;2.30;58.20
19180;DHT22;9722;48.754;8.868;2023-04-03T21:22:33;2.20;58.20
19180;DHT22;9722;48.754;8.868;2023-04-03T21:25:53;2.20;58.50
19180;DHT22;9722;48.754;8.868;2023-04-03T21:29:14;2.00;58.60
19180;DHT22;9722;48.754;8.868;2023-04-03T21:32:35;2.00;58.80
19180;DHT22;9722;48.754;8.868;2023-04-03T21:35:55;2.00;58.90
19180;DHT22;9722;48.754;8.868;2023-04-03T21:39:20;1.90;59.00
19180;DHT22;9722;48.754;8.868;2023-04-03T21:42:41;1.90;59.20
19180;DHT22;9722;48.754;8.868;2023-04-03T21:46:01;1.80;59.30
19180;DHT22;9722;48.754;8.868;2023-04-03T21:49:24;1.80;59.50
19180;DHT22;9722;48.754;8.868;2023-04-03T21:52:44;1.70;59.70
19180;DHT22;9722;48.754;8.868;2023-04-03T21:56:05;1.60;59.90
19180;DHT22;9722;48.754;8.868;2023-04-03T21:59:25;1.60;60.10
19180;DHT22;9722;48.754;8.868;2023-04-03T22:02:46;1.50;60.20
19180;DHT22;9722;48.754;8.868;2023-04-03T22:06:07;1.40;60.40
19180;DHT22;9722;48.754;8.868;2023-04-03T22:09:28;1.40;60.70
19180;DHT22;9722;48.754;8.868;2023-04-03T22:12:48;1.30;60.60
19180;DHT22;9722;48.754;8.868;2023-04-03T22:16:10;1.30;60.80
19180;DHT22;9722;48.754;8.868;2023-04-03T22:19:33;1.30;61.10
19180;DHT22;9722;48.754;8.868;2023-04-03T22:22:54;1.30;61.40
19180;DHT22;9722;48.754;8.868;2023-04-03T22:26:15;1.20;61.40
19180;DHT22;9722;48.754;8.868;2023-04-03T22:29:36;1.10;61.50
19180;DHT22;9722;48.754;8.868;2023-04-03T22:32:56;1.10;61.80
19180;DHT22;9722;48.754;8.868;2023-04-03T22:36:17;1.00;62.10
19180;DHT22;9722;48.754;8.868;2023-04-03T22:39:37;1.00;62.30
19180;DHT22;9722;48.754;8.868;2023-04-03T22:42:58;0.90;62.60
19180;DHT22;9722;48.754;8.868;2023-04-03T22:46:18;0.90;62.80
19180;DHT22;9722;48.754;8.868;2023-04-03T22:49:39;0.80;63.10
19180;DHT22;9722;48.754;8.868;2023-04-03T22:53:00;0.80;63.10
19180;DHT22;9722;48.754;8.868;2023-04-03T22:56:20;0.80;63.30
19180;DHT22;9722;48.754;8.868;2023-04-03T22:59:41;0.70;63.30
19180;DHT22;9722;48.754;8.868;2023-04-03T23:03:01;0.70;63.50
19180;DHT22;9722;48.754;8.868;2023-04-03T23:06:22;0.70;63.70
19180;DHT22;9722;48.754;8.868;2023-04-03T23:09:42;0.60;63.80
19180;DHT22;9722;48.754;8.868;2023-04-03T23:13:03;0.60;63.90
19180;DHT22;9722;48.754;8.868;2023-04-03T23:16:23;0.60;63.80
19180;DHT22;9722;48.754;8.868;2023-04-03T23:19:44;0.50;63.90
19180;DHT22;9722;48.754;8.868;2023-04-03T23:23:04;0.50;64.20
19180;DHT22;9722;48.754;8.868;2023-04-03T23:26:26;0.50;64.40